Flight Track Log - Related Links

Times and Time Zones

All times are in EDT time to prevent confusion due to time zone crossing. See the SWA378 flight status page for this flight to view local times or setup timezone preferences in your user account.

Time Position Orientation Groundspeed Altitude Reporting Facility
EDT Latitude Longitude Course Direction KTS MPH feet Rate Location/Type
Tue 06:31:41 PM 33.6333 -84.3667 90° East 195 224 3,600  Level Atlanta TRACON
Tue 06:32:41 PM 33.6333 -84.2833 90° East 264 304 5,900 2,526 Climbing Atlanta TRACON
Tue 06:33:35 PM 33.6333 -84.2000 90° East 284 327 8,400 2,731 Climbing Atlanta TRACON
Tue 06:34:55 PM 33.6356 -84.0711 89° East 310 357 12,000 3,000 Climbing Atlanta Center
Tue 06:35:55 PM 33.6419 -83.9564 86° East 323 372 15,400 3,450 Climbing Atlanta Center
Tue 06:36:55 PM 33.6500 -83.8392 85° East 348 400 18,900 3,200 Climbing Atlanta Center
Tue 06:37:55 PM 33.6581 -83.7044 86° East 358 412 21,800 2,600 Climbing Atlanta Center
Tue 06:39:55 PM 33.7344 -83.4542 70° East 394 453 26,700 2,300 Climbing Atlanta Center
Tue 06:40:55 PM 33.7858 -83.3264 64° Northeast 402 463 28,700 1,300 Climbing Atlanta Center
Tue 06:41:55 PM 33.8436 -83.1933 62° Northeast 416 479 29,300 1,050 Climbing Atlanta Center
Tue 06:42:55 PM 33.8967 -83.0553 65° Northeast 439 505 30,800 800 Climbing Atlanta Center
Tue 06:43:55 PM 33.9561 -82.9119 63° Northeast 459 528 30,900 -500 Climbing Atlanta Center
Tue 06:44:55 PM 34.0089 -82.7708 66° East 464 534 29,800 -950 Descending Atlanta Center
Tue 06:45:55 PM 34.0617 -82.6372 64° Northeast 448 516 29,000 -400 Descending Atlanta Center
Tue 06:46:55 PM 34.1186 -82.5083 62° Northeast 442 509 29,000  Level Atlanta Center
Tue 06:47:55 PM 34.1650 -82.3742 67° East 437 503 29,000  Level Atlanta Center
Tue 06:48:55 PM 34.2194 -82.2400 64° Northeast 437 503 29,000  Level Atlanta Center
Tue 06:49:55 PM 34.2736 -82.1083 64° Northeast 432 497 29,000  Level Atlanta Center
Tue 06:50:55 PM 34.3364 -81.9836 59° Northeast 432 497 29,000  Level Atlanta Center
Tue 06:51:55 PM 34.3989 -81.8561 59° Northeast 438 504 29,000  Level Atlanta Center
Tue 06:52:55 PM 34.4656 -81.7283 58° Northeast 438 504 29,000  Level Atlanta Center
Tue 06:53:55 PM 34.5217 -81.6108 60° Northeast 443 510 29,000  Level Atlanta Center
Tue 06:54:55 PM 34.5836 -81.4831 59° Northeast 438 504 29,000  Level Atlanta Center
Tue 06:55:55 PM 34.6539 -81.3494 57° Northeast 433 498 29,000  Level Atlanta Center
Tue 06:56:55 PM 34.7178 -81.2211 59° Northeast 433 498 29,000  Level Atlanta Center
Tue 06:57:55 PM 34.7794 -81.0925 60° Northeast 438 504 29,000  Level Atlanta Center
Tue 06:58:55 PM 34.8411 -80.9664 59° Northeast 432 497 29,000  Level Atlanta Center
Tue 06:59:55 PM 34.9044 -80.8350 60° Northeast 439 505 29,000  Level Atlanta Center
Tue 07:00:55 PM 34.9658 -80.7083 59° Northeast 439 505 29,000  Level Atlanta Center
Tue 07:01:55 PM 35.0269 -80.5792 60° Northeast 433 498 29,000  Level Atlanta Center
Tue 07:04:15 PM 35.1600 -80.2944 60° Northeast 430 495 29,000  Level Washington Center
Tue 07:05:15 PM 35.2256 -80.1661 58° Northeast 430 495 29,000  Level Washington Center
Tue 07:06:16 PM 35.2911 -80.0325 59° Northeast 424 488 29,000  Level Washington Center
Tue 07:07:13 PM 35.3481 -79.9033 62° Northeast 424 488 29,000  Level Washington Center
Tue 07:08:14 PM 35.3906 -79.7628 70° East 424 488 29,000  Level Washington Center
Tue 07:09:14 PM 35.4308 -79.6247 70° East 424 488 29,000  Level Washington Center
Tue 07:10:15 PM 35.4731 -79.4867 69° East 424 488 29,000  Level Washington Center
Tue 07:11:15 PM 35.5103 -79.3608 70° East 424 488 29,000  Level Washington Center
Tue 07:12:16 PM 35.5481 -79.2222 71° East 424 488 29,000  Level Washington Center
Tue 07:13:13 PM 35.5944 -79.0683 70° East 425 489 29,000  Level Washington Center
Tue 07:14:15 PM 35.6336 -78.9322 70° East 420 483 29,000  Level Washington Center
Tue 07:15:13 PM 35.6753 -78.7883 70° East 420 483 29,000  Level Washington Center
Tue 07:16:13 PM 35.7164 -78.6492 70° East 425 489 29,000 -298 Level Washington Center
Tue 07:17:14 PM 35.7575 -78.5075 70° East 425 489 28,400 -836 Descending Washington Center
Tue 07:18:15 PM 35.7942 -78.3706 72° East 425 489 27,300 -1,059 Descending Washington Center
Tue 07:19:13 PM 35.8328 -78.2333 71° East 419 482 26,300 -915 Descending Washington Center
Tue 07:20:13 PM 35.8644 -78.1142 72° East 419 482 25,500 -885 Descending Washington Center
Tue 07:21:15 PM 35.9028 -77.9819 70° East 414 476 24,500 -984 Descending Washington Center
Tue 07:22:15 PM 35.9364 -77.8547 72° East 403 464 23,500 -1,000 Descending Washington Center
Tue 07:23:15 PM 35.9722 -77.7272 71° East 398 458 22,500 -1,017 Descending Washington Center
Tue 07:24:13 PM 36.0222 -77.6131 62° Northeast 391 450 21,500 -756 Descending Washington Center
Tue 07:25:14 PM 36.0761 -77.5039 59° Northeast 371 427 21,000 -248 Descending Washington Center
Tue 07:26:14 PM 36.1278 -77.3947 60° Northeast 366 421 21,000  Level Washington Center
Tue 07:27:15 PM 36.1775 -77.2853 61° Northeast 366 421 21,000 -857 Level Washington Center
Tue 07:28:13 PM 36.2292 -77.1706 61° Northeast 366 421 19,300 -2,000 Descending Washington Center
Tue 07:29:15 PM 36.2869 -77.0531 59° Northeast 366 421 17,000 -2,286 Descending Washington Center
Tue 07:29:58 PM 36.3211 -76.9842 58° Northeast 360 414 15,300 -2,276 Descending Washington Center
Tue 07:30:13 PM 36.3361 -76.9483 63° Northeast 366 421 14,800 -689 Descending Washington Center
Tue 07:30:59 PM 36.3661 -76.8842 60° Northeast 329 379 14,600 -197 Descending Washington Center
Tue 07:31:14 PM 36.3831 -76.8561 53° Northeast 342 394 14,600 -1,034 Level Washington Center
Tue 07:31:57 PM 36.4169 -76.8181 42° Northeast 247 284 13,600 -1,279 Descending Washington Center
Tue 07:32:15 PM 36.4339 -76.7925 51° Northeast 295 339 13,300 -1,347 Descending Washington Center
Tue 07:32:46 PM 36.4592 -76.7644 42° Northeast 247 284 12,500 -1,552 Descending Washington Center
Tue 07:33:13 PM 36.4825 -76.7311 49° Northeast 261 300 11,800 -1,519 Descending Washington Center
Tue 07:34:05 PM 36.5203 -76.6800 47° Northeast 244 281 10,500 -1,698 Descending Washington Center
Tue 07:34:59 PM 36.5628 -76.6211 48° Northeast 245 282 8,800 -1,714 Descending Washington Center
Tue 07:35:15 PM 36.5711 -76.6031 60° Northeast 238 274 8,500 -1,644 Descending Washington Center
Tue 07:36:12 PM 36.6114 -76.5417 51° Northeast 229 264 6,800 -1,563 Descending Washington Center
Tue 07:37:14 PM 36.6492 -76.4850 50° Northeast 200 230 5,400 -1,525 Descending Washington Center
Tue 07:38:14 PM 36.6850 -76.4336 49° Northeast 205 236 3,700 -1,587 Descending Washington Center
Tue 07:39:15 PM 36.7147 -76.3925 48° Northeast 180 207 2,200 -835 Descending Washington Center
Tue 07:40:09 PM 36.7400 -76.3514 52° Northeast 157 181 2,100 -55 Descending Washington Center
Tue 07:41:04 PM 36.7714 -76.3231 36° Northeast 157 181 2,100  Level Washington Center

Login

Don't have an account? Register now (free) for customized features, flight alerts, and more!